createdAt,value
2018-09-10T00:00:21.041Z,3.30
2018-09-10T00:02:55.259Z,3.30
2018-09-10T00:05:22.802Z,3.07
2018-09-10T00:07:50.325Z,3.50
2018-09-10T00:10:17.906Z,3.30
2018-09-10T00:12:45.435Z,3.63
2018-09-10T00:15:13.243Z,3.80
2018-09-10T00:17:40.763Z,3.47
2018-09-10T00:20:08.316Z,3.60
2018-09-10T00:22:35.891Z,3.27
2018-09-10T00:25:04.023Z,3.23
2018-09-10T00:27:31.549Z,3.43
2018-09-10T00:29:59.076Z,2.90
2018-09-10T00:32:27.018Z,3.50
2018-09-10T00:34:54.649Z,2.80
2018-09-10T00:37:22.162Z,3.40
2018-09-10T00:39:56.576Z,3.40
2018-09-10T00:42:24.142Z,3.83
2018-09-10T00:44:51.693Z,3.23
2018-09-10T00:47:19.248Z,3.23
2018-09-10T00:49:46.783Z,3.57
2018-09-10T00:52:14.311Z,3.33
2018-09-10T00:54:41.838Z,3.23
2018-09-10T00:57:09.364Z,3.00
2018-09-10T00:59:36.875Z,3.23
2018-09-10T01:02:04.418Z,3.20
2018-09-10T01:04:31.960Z,3.90
2018-09-10T01:06:59.494Z,3.30
2018-09-10T01:09:26.992Z,3.40
2018-09-10T01:11:54.496Z,3.13
2018-09-10T01:14:21.991Z,3.57
2018-09-10T01:16:49.487Z,3.67
2018-09-10T01:19:16.979Z,2.93
2018-09-10T01:21:44.480Z,3.40
2018-09-10T01:24:11.971Z,3.47
2018-09-10T01:26:39.464Z,3.23
2018-09-10T01:29:06.963Z,3.27
2018-09-10T01:31:34.481Z,3.50
2018-09-10T01:34:07.905Z,3.47
2018-09-10T01:36:35.382Z,3.50
2018-09-10T01:39:04.126Z,3.13
2018-09-10T01:41:31.624Z,3.67
2018-09-10T01:43:59.139Z,3.77
2018-09-10T01:46:26.657Z,3.40
2018-09-10T01:48:54.148Z,3.40
2018-09-10T01:51:21.643Z,3.67
2018-09-10T01:53:49.126Z,3.67
2018-09-10T01:56:16.634Z,3.80
2018-09-10T01:58:44.144Z,3.60
2018-09-10T02:01:11.656Z,3.60
2018-09-10T02:03:39.143Z,3.93
2018-09-10T02:06:06.916Z,3.70
2018-09-10T02:08:34.425Z,3.50
2018-09-10T02:11:01.996Z,3.77
2018-09-10T02:13:29.523Z,4.20
2018-09-10T02:15:57.065Z,4.83
2018-09-10T02:18:24.601Z,4.33
2018-09-10T02:20:52.123Z,4.10
2018-09-10T02:23:19.655Z,3.80
2018-09-10T02:25:47.215Z,3.70
2018-09-10T02:28:14.740Z,3.83
2018-09-10T02:30:42.270Z,3.70
2018-09-10T02:33:09.817Z,3.53
2018-09-10T02:35:37.352Z,3.77
2018-09-10T02:38:05.252Z,4.20
2018-09-10T02:40:32.808Z,4.20
2018-09-10T02:43:00.573Z,3.80
2018-09-10T02:45:28.123Z,4.40
2018-09-10T02:47:55.683Z,3.87
2018-09-10T02:50:23.232Z,4.00
2018-09-10T02:52:50.975Z,4.23
2018-09-10T02:55:18.721Z,4.13
2018-09-10T02:57:46.247Z,4.30
2018-09-10T03:00:13.801Z,3.80
2018-09-10T03:02:41.658Z,3.93
2018-09-10T03:05:09.200Z,3.70
2018-09-10T03:07:36.882Z,4.17
2018-09-10T03:10:04.602Z,3.90
2018-09-10T03:12:32.100Z,4.03
2018-09-10T03:14:59.659Z,4.03
2018-09-10T03:17:27.539Z,3.57
2018-09-10T03:19:55.024Z,3.63
2018-09-10T03:22:22.532Z,4.10
2018-09-10T03:24:50.035Z,3.80
2018-09-10T03:27:17.686Z,3.60
2018-09-10T03:29:45.556Z,3.70
2018-09-10T03:32:13.051Z,3.43
2018-09-10T03:34:40.560Z,3.90
2018-09-10T03:37:08.089Z,4.33
2018-09-10T03:39:35.580Z,4.17
2018-09-10T03:42:03.087Z,4.10
2018-09-10T03:44:30.585Z,4.07
2018-09-10T03:46:58.105Z,4.13
2018-09-10T03:49:25.601Z,4.03
2018-09-10T03:51:53.083Z,4.13
2018-09-10T03:54:20.582Z,3.90
2018-09-10T03:56:48.091Z,4.37
2018-09-10T03:59:15.586Z,4.43
2018-09-10T04:01:43.091Z,3.33
2018-09-10T04:04:10.588Z,3.77
2018-09-10T04:06:38.095Z,4.00
2018-09-10T04:09:06.591Z,4.10
2018-09-10T04:11:34.361Z,4.20
2018-09-10T04:14:01.952Z,4.00
2018-09-10T04:16:29.688Z,4.10
2018-09-10T04:18:57.255Z,3.70
2018-09-10T04:21:24.832Z,3.60
2018-09-10T04:23:52.581Z,3.90
2018-09-10T04:26:20.140Z,4.07
2018-09-10T04:28:47.703Z,4.37
2018-09-10T04:31:15.252Z,4.20
2018-09-10T04:33:43.012Z,4.17
2018-09-10T04:36:10.746Z,3.83
2018-09-10T04:38:38.353Z,3.90
2018-09-10T04:41:05.900Z,4.53
2018-09-10T04:43:33.438Z,4.30
2018-09-10T04:46:01.119Z,3.33
2018-09-10T04:48:28.692Z,3.80
2018-09-10T04:50:56.222Z,3.70
2018-09-10T04:53:24.019Z,3.63
2018-09-10T04:55:51.664Z,3.83
2018-09-10T04:58:19.199Z,3.27
2018-09-10T05:00:46.753Z,3.90
2018-09-10T05:03:14.293Z,3.37
2018-09-10T05:05:41.852Z,3.80
2018-09-10T05:08:09.398Z,2.83
2018-09-10T05:10:36.945Z,3.57
2018-09-10T05:13:04.495Z,3.40
2018-09-10T05:15:32.048Z,3.37
2018-09-10T05:17:59.584Z,3.57
2018-09-10T05:20:27.125Z,3.20
2018-09-10T05:22:54.673Z,3.13
2018-09-10T05:25:22.207Z,3.57
2018-09-10T05:27:49.768Z,3.67
2018-09-10T05:30:17.299Z,3.47
2018-09-10T05:32:44.851Z,3.50
2018-09-10T05:35:12.392Z,3.90
2018-09-10T05:37:39.939Z,3.40
2018-09-10T05:40:08.570Z,3.30
2018-09-10T05:42:36.105Z,3.90
2018-09-10T05:45:04.345Z,3.63
2018-09-10T05:47:31.903Z,4.07
2018-09-10T05:49:59.444Z,4.17
2018-09-10T05:52:27.017Z,4.13
2018-09-10T05:54:54.552Z,3.77
2018-09-10T05:57:22.073Z,3.80
2018-09-10T05:59:49.607Z,3.97
2018-09-10T06:02:17.163Z,3.50
2018-09-10T06:04:44.705Z,3.90
2018-09-10T06:07:12.247Z,3.63
2018-09-10T06:09:39.751Z,3.90
2018-09-10T06:12:07.279Z,3.93
2018-09-10T06:14:34.787Z,3.70
2018-09-10T06:17:02.287Z,3.87
2018-09-10T06:19:29.801Z,3.97
2018-09-10T06:21:57.290Z,3.33
2018-09-10T06:24:24.805Z,3.80
2018-09-10T06:26:52.308Z,3.97
2018-09-10T06:29:19.814Z,3.80
2018-09-10T06:31:47.339Z,4.27
2018-09-10T06:34:14.947Z,4.13
2018-09-10T06:36:42.367Z,3.97
2018-09-10T06:39:11.348Z,3.60
2018-09-10T06:41:38.849Z,3.93
2018-09-10T06:44:06.563Z,4.13
2018-09-10T06:46:34.047Z,4.13
2018-09-10T06:49:01.543Z,4.13
2018-09-10T06:51:29.062Z,4.35
2018-09-10T06:53:57.117Z,4.40
2018-09-10T06:56:24.603Z,4.50
2018-09-10T06:58:52.099Z,4.28
2018-09-10T07:01:19.592Z,4.28
2018-09-10T07:03:47.097Z,4.03
2018-09-10T07:06:14.605Z,4.20
2018-09-10T07:08:42.114Z,4.37
2018-09-10T07:11:09.626Z,4.35
2018-09-10T07:13:37.133Z,3.92
2018-09-10T07:16:04.648Z,4.40
2018-09-10T07:18:32.144Z,4.90
2018-09-10T07:20:59.643Z,4.17
2018-09-10T07:23:27.153Z,4.30
2018-09-10T07:25:54.660Z,4.00
2018-09-10T07:28:22.166Z,3.92
2018-09-10T07:30:49.662Z,4.12
2018-09-10T07:33:17.163Z,4.37
2018-09-10T07:35:44.676Z,4.30
2018-09-10T07:38:12.363Z,4.42
2018-09-10T07:40:40.140Z,3.90
2018-09-10T07:43:07.643Z,4.33
2018-09-10T07:45:35.147Z,3.92
2018-09-10T07:48:02.650Z,4.10
2018-09-10T07:50:30.163Z,3.70
2018-09-10T07:52:57.673Z,3.70
2018-09-10T07:55:25.174Z,3.15
2018-09-10T07:57:52.654Z,3.40
2018-09-10T08:00:20.159Z,3.55
2018-09-10T08:02:47.678Z,3.20
2018-09-10T08:05:23.219Z,3.42
2018-09-10T08:07:50.877Z,3.00
2018-09-10T08:10:18.443Z,2.70
2018-09-10T08:12:46.191Z,3.37
2018-09-10T08:15:13.760Z,3.08
2018-09-10T08:17:41.300Z,2.60
2018-09-10T08:20:08.986Z,3.40
2018-09-10T08:22:36.507Z,3.10
2018-09-10T08:25:04.217Z,2.83
2018-09-10T08:27:32.073Z,2.90
2018-09-10T08:29:59.623Z,3.00
2018-09-10T08:32:27.157Z,2.37
2018-09-10T08:34:54.930Z,2.98
2018-09-10T08:37:22.467Z,2.67
2018-09-10T08:39:50.012Z,2.90
2018-09-10T08:42:17.556Z,2.67
2018-09-10T08:44:45.116Z,2.87
2018-09-10T08:47:12.670Z,2.52
2018-09-10T08:49:40.220Z,2.42
2018-09-10T08:52:07.780Z,2.40
2018-09-10T08:54:35.609Z,2.58
2018-09-10T08:57:02.868Z,3.52
2018-09-10T08:59:30.455Z,3.27
2018-09-10T09:01:58.053Z,3.17
2018-09-10T09:04:25.536Z,2.67
2018-09-10T09:06:53.092Z,2.10
2018-09-10T09:09:20.816Z,2.77
2018-09-10T09:11:48.360Z,2.40
2018-09-10T09:14:15.904Z,1.92
2018-09-10T09:16:43.464Z,2.17
2018-09-10T09:19:11.008Z,1.98
2018-09-10T09:21:38.565Z,2.25
2018-09-10T09:24:06.100Z,2.35
2018-09-10T09:26:33.651Z,2.50
2018-09-10T09:29:01.188Z,2.00
2018-09-10T09:31:28.736Z,1.90
2018-09-10T09:33:56.277Z,2.02
2018-09-10T09:36:29.489Z,1.70
2018-09-10T09:39:02.812Z,1.60
2018-09-10T09:41:36.125Z,2.00
2018-09-10T09:44:09.361Z,1.80
2018-09-10T09:46:36.891Z,2.00
2018-09-10T09:49:04.496Z,1.90
2018-09-10T09:51:32.035Z,2.00
2018-09-10T09:53:59.579Z,2.00
2018-09-10T09:56:27.136Z,1.80
2018-09-10T09:58:54.649Z,1.77
2018-09-10T10:01:27.661Z,2.05
2018-09-10T10:03:56.200Z,2.10
2018-09-10T10:06:24.486Z,1.85
2018-09-10T10:08:52.235Z,1.82
2018-09-10T10:11:19.758Z,1.80
2018-09-10T10:13:47.254Z,1.90
2018-09-10T10:16:14.804Z,1.90
2018-09-10T10:18:42.333Z,2.12
2018-09-10T10:21:09.843Z,2.27
2018-09-10T10:23:37.411Z,2.25
2018-09-10T10:26:04.995Z,2.20
2018-09-10T10:28:32.836Z,3.20
2018-09-10T10:31:00.335Z,3.20
2018-09-10T10:33:27.881Z,3.25
2018-09-10T10:35:55.423Z,2.98
2018-09-10T10:38:22.964Z,2.45
2018-09-10T10:40:50.511Z,2.30
2018-09-10T10:43:18.087Z,2.20
2018-09-10T10:45:45.623Z,2.10
2018-09-10T10:48:13.159Z,2.20
2018-09-10T10:50:40.703Z,1.85
2018-09-10T10:53:08.249Z,1.70
2018-09-10T10:55:35.787Z,2.15
2018-09-10T10:58:03.333Z,1.75
2018-09-10T11:00:30.875Z,1.95
2018-09-10T11:02:58.401Z,1.75
2018-09-10T11:05:25.940Z,2.08
2018-09-10T11:07:53.462Z,2.10
2018-09-10T11:10:21.020Z,2.17
2018-09-10T11:12:48.543Z,2.30
2018-09-10T11:15:16.363Z,2.20
2018-09-10T11:17:43.900Z,2.12
2018-09-10T11:20:11.444Z,2.10
2018-09-10T11:22:39.016Z,2.22
2018-09-10T11:25:06.672Z,2.30
2018-09-10T11:27:34.242Z,2.17
2018-09-10T11:30:01.768Z,2.10
2018-09-10T11:32:29.336Z,1.98
2018-09-10T11:34:57.165Z,2.00
2018-09-10T11:37:24.833Z,2.00
2018-09-10T11:39:52.379Z,2.00
2018-09-10T11:42:19.929Z,1.95
2018-09-10T11:44:47.444Z,1.77
2018-09-10T11:47:14.995Z,2.02
2018-09-10T11:49:42.537Z,1.85
2018-09-10T11:55:10.040Z,2.20
2018-09-10T11:57:37.567Z,1.70
2018-09-10T12:00:05.132Z,1.92
2018-09-10T12:02:32.663Z,1.87
2018-09-10T12:05:00.190Z,1.85
2018-09-10T12:07:27.719Z,2.10
2018-09-10T12:09:55.259Z,1.92
2018-09-10T12:12:22.799Z,2.00
2018-09-10T12:14:50.448Z,2.10
2018-09-10T12:17:17.994Z,1.90
2018-09-10T12:19:45.532Z,2.02
2018-09-10T12:22:13.064Z,2.10
2018-09-10T12:24:40.628Z,2.00
2018-09-10T12:27:08.173Z,2.02
2018-09-10T12:29:35.708Z,1.87
2018-09-10T12:32:03.492Z,2.10
2018-09-10T12:34:31.019Z,2.37
2018-09-10T12:36:58.551Z,2.02
2018-09-10T12:39:26.091Z,2.10
2018-09-10T12:41:53.628Z,2.08
2018-09-10T12:44:21.154Z,2.30
2018-09-10T12:46:48.696Z,2.10
2018-09-10T12:49:16.249Z,1.95
2018-09-10T12:51:43.795Z,1.90
2018-09-10T12:54:11.330Z,2.08
2018-09-10T12:56:38.879Z,2.20
2018-09-10T12:59:06.417Z,1.92
2018-09-10T13:01:33.955Z,2.17
2018-09-10T13:04:01.494Z,2.10
2018-09-10T13:06:29.044Z,1.90
2018-09-10T13:08:56.543Z,2.10
2018-09-10T13:11:24.114Z,2.00
2018-09-10T13:13:51.620Z,2.08
2018-09-10T13:16:19.139Z,2.00
2018-09-10T13:18:46.631Z,2.02
2018-09-10T13:21:14.123Z,2.02
2018-09-10T13:23:41.603Z,2.30
2018-09-10T13:26:39.160Z,1.90
2018-09-10T13:29:06.678Z,1.90
2018-09-10T13:31:34.179Z,1.90
2018-09-10T13:34:01.678Z,1.87
2018-09-10T13:36:29.240Z,2.00
2018-09-10T13:38:56.700Z,1.90
2018-09-10T13:41:24.323Z,1.95
2018-09-10T13:43:51.830Z,1.90
2018-09-10T13:46:19.827Z,1.95
2018-09-10T13:48:47.319Z,1.70
2018-09-10T13:51:14.827Z,2.00
2018-09-10T13:53:42.339Z,1.82
2018-09-10T13:56:09.835Z,1.70
2018-09-10T13:58:37.342Z,1.65
2018-09-10T14:01:14.572Z,1.70
2018-09-10T14:03:42.016Z,1.65
2018-09-10T14:06:09.518Z,1.67
2018-09-10T14:08:37.010Z,1.65
2018-09-10T14:11:04.564Z,1.70
2018-09-10T14:13:32.124Z,1.70
2018-09-10T14:16:13.098Z,1.87
2018-09-10T14:18:40.657Z,1.87
2018-09-10T14:21:08.192Z,1.82
2018-09-10T14:23:35.739Z,1.42
2018-09-10T14:26:03.374Z,1.60
2018-09-10T14:28:31.152Z,1.65
2018-09-10T14:30:58.701Z,1.30
2018-09-10T14:33:26.267Z,1.62
2018-09-10T14:35:53.812Z,1.87
2018-09-10T14:38:21.377Z,1.65
2018-09-10T14:40:49.689Z,1.50
2018-09-10T14:43:17.235Z,1.95
2018-09-10T14:45:44.775Z,1.70
2018-09-10T14:48:12.337Z,1.77
2018-09-10T14:50:39.896Z,1.90
2018-09-10T14:53:07.461Z,1.80
2018-09-10T14:55:35.009Z,1.45
2018-09-10T14:58:02.556Z,2.00
2018-09-10T15:00:30.087Z,1.75
2018-09-10T15:02:57.635Z,1.87
2018-09-10T15:05:25.173Z,2.08
2018-09-10T15:07:53.612Z,1.72
2018-09-10T15:10:25.483Z,1.75
2018-09-10T15:12:52.984Z,1.60
2018-09-10T15:15:48.404Z,1.90
2018-09-10T15:18:15.916Z,1.60
2018-09-10T15:20:43.427Z,1.57
2018-09-10T15:23:10.968Z,1.87
2018-09-10T15:25:38.501Z,2.15
2018-09-10T15:28:06.013Z,2.00
2018-09-10T15:30:33.520Z,1.80
2018-09-10T15:33:01.072Z,1.50
2018-09-10T15:35:28.580Z,1.75
2018-09-10T15:37:56.077Z,1.77
2018-09-10T15:40:23.576Z,1.80
2018-09-10T15:42:51.093Z,1.90
2018-09-10T15:45:18.684Z,2.00
2018-09-10T15:47:46.139Z,1.70
2018-09-10T15:50:13.632Z,2.10
2018-09-10T15:52:41.157Z,1.82
2018-09-10T15:55:08.669Z,2.17
2018-09-10T15:57:36.181Z,2.12
2018-09-10T16:00:03.774Z,1.92
2018-09-10T16:02:31.223Z,2.10
2018-09-10T16:04:58.729Z,1.80
2018-09-10T16:07:26.256Z,1.42
2018-09-10T16:09:53.779Z,1.85
2018-09-10T16:12:21.278Z,2.08
2018-09-10T16:14:49.643Z,2.50
2018-09-10T16:17:17.179Z,2.08
2018-09-10T16:19:44.727Z,1.98
2018-09-10T16:22:12.227Z,1.98
2018-09-10T16:24:39.737Z,2.20
2018-09-10T16:27:07.238Z,1.82
2018-09-10T16:29:34.735Z,1.92
2018-09-10T16:32:02.245Z,2.08
2018-09-10T16:34:29.742Z,2.10
2018-09-10T16:36:57.260Z,2.27
2018-09-10T16:39:24.755Z,1.90
2018-09-10T16:41:52.265Z,2.58
2018-09-10T16:44:19.766Z,2.25
2018-09-10T16:46:47.258Z,2.30
2018-09-10T16:49:14.762Z,2.27
2018-09-10T16:51:42.277Z,1.87
2018-09-10T16:54:09.863Z,1.90
2018-09-10T16:56:37.314Z,2.15
2018-09-10T16:59:04.808Z,2.02
2018-09-10T17:01:32.321Z,2.10
2018-09-10T17:03:59.853Z,2.10
2018-09-10T17:06:27.403Z,1.77
2018-09-10T17:08:54.883Z,1.80
2018-09-10T17:11:22.419Z,2.00
2018-09-10T17:13:50.122Z,1.80
2018-09-10T17:16:17.687Z,2.37
2018-09-10T17:18:45.252Z,1.95
2018-09-10T17:21:12.777Z,2.10
2018-09-10T17:23:40.365Z,1.70
2018-09-10T17:26:07.906Z,1.87
2018-09-10T17:28:35.442Z,2.00
2018-09-10T17:31:02.982Z,2.10
2018-09-10T17:33:30.528Z,2.02
2018-09-10T17:35:58.059Z,1.80
2018-09-10T17:38:25.615Z,1.72
2018-09-10T17:40:53.164Z,2.00
2018-09-10T17:43:20.700Z,1.80
2018-09-10T17:45:48.213Z,2.20
2018-09-10T17:48:15.769Z,3.12
2018-09-10T17:50:43.339Z,2.60
2018-09-10T17:53:10.942Z,2.80
2018-09-10T17:55:38.465Z,2.65
2018-09-10T17:58:06.008Z,2.72
2018-09-10T18:00:37.865Z,2.20
2018-09-10T18:03:06.640Z,2.10
2018-09-10T18:05:34.183Z,1.98
2018-09-10T18:08:01.703Z,1.92
2018-09-10T18:10:29.260Z,2.47
2018-09-10T18:12:56.796Z,2.08
2018-09-10T18:15:24.346Z,2.42
2018-09-10T18:17:51.887Z,2.25
2018-09-10T18:20:19.447Z,2.00
2018-09-10T18:22:47.008Z,2.17
2018-09-10T18:25:14.585Z,2.20
2018-09-10T18:27:42.120Z,2.30
2018-09-10T18:30:09.671Z,2.15
2018-09-10T18:32:37.207Z,2.08
2018-09-10T18:35:04.755Z,1.98
2018-09-10T18:37:32.287Z,1.90
2018-09-10T18:39:59.828Z,2.10
2018-09-10T18:42:27.372Z,2.35
2018-09-10T18:44:54.907Z,2.40
2018-09-10T18:47:22.444Z,2.42
2018-09-10T18:49:50.012Z,2.30
2018-09-10T18:52:17.593Z,2.60
2018-09-10T18:54:45.145Z,2.50
2018-09-10T18:57:12.685Z,2.22
2018-09-10T18:59:40.231Z,2.35
2018-09-10T19:02:07.767Z,2.47
2018-09-10T19:04:35.306Z,2.70
2018-09-10T19:07:02.840Z,2.60
2018-09-10T19:09:30.353Z,2.70
2018-09-10T19:11:57.864Z,2.60
2018-09-10T19:14:25.367Z,2.47
2018-09-10T19:16:52.878Z,2.45
2018-09-10T19:19:20.392Z,2.35
2018-09-10T19:21:47.909Z,2.60
2018-09-10T19:24:15.420Z,1.90
2018-09-10T19:26:42.923Z,2.05
2018-09-10T19:29:10.426Z,2.30
2018-09-10T19:31:37.919Z,2.30
2018-09-10T19:34:05.423Z,2.70
2018-09-10T19:36:32.918Z,2.30
2018-09-10T19:39:00.412Z,2.40
2018-09-10T19:41:27.956Z,2.72
2018-09-10T19:43:55.503Z,2.50
2018-09-10T19:46:23.023Z,2.75
2018-09-10T19:48:50.497Z,2.40
2018-09-10T19:51:18.044Z,2.25
2018-09-10T19:53:45.535Z,2.80
2018-09-10T19:56:13.051Z,2.35
2018-09-10T19:58:40.536Z,2.67
2018-09-10T20:04:27.881Z,2.35
2018-09-10T20:06:55.395Z,2.50
2018-09-10T20:09:22.915Z,2.70
2018-09-10T20:12:09.905Z,2.70
2018-09-10T20:14:37.422Z,2.72
2018-09-10T20:17:05.053Z,2.92
2018-09-10T20:19:32.565Z,2.60
2018-09-10T20:22:00.132Z,2.72
2018-09-10T20:24:27.607Z,2.58
2018-09-10T20:26:55.114Z,2.58
2018-09-10T20:29:22.645Z,2.72
2018-09-10T20:31:50.153Z,2.98
2018-09-10T20:34:17.648Z,2.90
2018-09-10T20:36:45.151Z,2.60
2018-09-10T20:39:13.304Z,2.67
2018-09-10T20:41:40.819Z,2.83
2018-09-10T20:44:08.615Z,2.87
2018-09-10T20:46:36.296Z,2.70
2018-09-10T20:49:03.959Z,2.77
2018-09-10T20:51:31.490Z,2.87
2018-09-10T20:53:58.984Z,2.67
2018-09-10T20:56:26.483Z,2.87
2018-09-10T20:58:53.972Z,2.90
2018-09-10T21:01:21.479Z,2.62
2018-09-10T21:03:49.011Z,2.70
2018-09-10T21:06:17.145Z,3.17
2018-09-10T21:08:44.646Z,2.98
2018-09-10T21:11:12.220Z,3.65
2018-09-10T21:13:39.779Z,3.42
2018-09-10T21:16:07.344Z,3.33
2018-09-10T21:18:34.883Z,3.22
2018-09-10T21:21:02.448Z,3.08
2018-09-10T21:23:30.004Z,3.40
2018-09-10T21:25:57.562Z,2.90
2018-09-10T21:28:25.316Z,3.27
2018-09-10T21:30:52.871Z,3.05
2018-09-10T21:33:20.418Z,3.42
2018-09-10T21:35:47.942Z,3.15
2018-09-10T21:38:15.503Z,3.37
2018-09-10T21:40:43.072Z,2.98
2018-09-10T21:43:10.607Z,3.00
2018-09-10T21:45:38.125Z,3.05
2018-09-10T21:48:05.687Z,3.20
2018-09-10T21:50:33.272Z,2.60
2018-09-10T21:53:00.827Z,2.98
2018-09-10T21:55:28.385Z,2.90
2018-09-10T21:57:55.955Z,3.08
2018-09-10T22:00:23.532Z,3.00
2018-09-10T22:02:51.075Z,2.92
2018-09-10T22:05:18.631Z,2.62
2018-09-10T22:07:46.174Z,2.67
2018-09-10T22:10:13.799Z,2.85
2018-09-10T22:12:41.279Z,2.80
2018-09-10T22:15:08.828Z,2.72
2018-09-10T22:17:36.368Z,2.70
2018-09-10T22:20:03.967Z,2.20
2018-09-10T22:22:31.544Z,2.67
2018-09-10T22:24:59.080Z,2.70
2018-09-10T22:27:26.644Z,2.50
2018-09-10T22:29:54.208Z,2.42
2018-09-10T22:32:21.742Z,2.50
2018-09-10T22:34:49.282Z,2.22
2018-09-10T22:37:16.824Z,2.50
2018-09-10T22:39:44.368Z,2.50
2018-09-10T22:42:11.919Z,2.50
2018-09-10T22:44:39.452Z,2.20
2018-09-10T22:47:07.012Z,2.42
2018-09-10T22:49:34.580Z,2.10
2018-09-10T22:52:02.126Z,2.40
2018-09-10T22:54:29.685Z,2.30
2018-09-10T22:56:57.224Z,1.87
2018-09-10T22:59:24.784Z,2.33
2018-09-10T23:01:52.344Z,2.50
2018-09-10T23:04:19.867Z,2.70
2018-09-10T23:06:47.413Z,2.40
2018-09-10T23:09:14.921Z,2.62
2018-09-10T23:11:42.425Z,2.25
2018-09-10T23:14:09.918Z,2.08
2018-09-10T23:16:37.539Z,2.33
2018-09-10T23:19:05.020Z,2.20
2018-09-10T23:21:32.532Z,1.90
2018-09-10T23:24:00.044Z,2.27
2018-09-10T23:26:27.561Z,2.35
2018-09-10T23:28:55.054Z,2.08
2018-09-10T23:31:22.579Z,2.20
2018-09-10T23:33:50.079Z,2.30
2018-09-10T23:36:17.583Z,2.25
2018-09-10T23:38:45.093Z,2.20
2018-09-10T23:41:12.621Z,2.10
2018-09-10T23:43:40.116Z,1.98
2018-09-10T23:46:07.631Z,1.95
2018-09-10T23:48:35.124Z,2.10
2018-09-10T23:51:02.654Z,2.20
2018-09-10T23:53:30.160Z,2.22
2018-09-10T23:55:57.658Z,2.52
2018-09-10T23:58:25.169Z,1.82
